sensor_id;sensor_type;location;lat;lon;timestamp;pressure;altitude;pressure_sealevel;temperature;humidity
69153;BME280;56261;51.580;4.578;2023-04-05T00:01:33;102627.34;;;3.26;100.00
69153;BME280;56261;51.580;4.578;2023-04-05T00:04:00;102620.16;;;3.29;100.00
69153;BME280;56261;51.580;4.578;2023-04-05T00:06:27;102621.19;;;3.27;100.00
69153;BME280;56261;51.580;4.578;2023-04-05T00:09:01;102622.09;;;3.26;100.00
69153;BME280;56261;51.580;4.578;2023-04-05T00:11:28;102622.72;;;3.14;100.00
69153;BME280;56261;51.580;4.578;2023-04-05T00:13:55;102619.59;;;3.05;100.00
69153;BME280;56261;51.580;4.578;2023-04-05T00:16:21;102617.97;;;3.03;100.00
69153;BME280;56261;51.580;4.578;2023-04-05T00:18:46;102604.31;;;2.95;100.00
69153;BME280;56261;51.580;4.578;2023-04-05T00:21:25;102614.41;;;2.86;100.00
69153;BME280;56261;51.580;4.578;2023-04-05T00:23:55;102615.94;;;2.73;100.00
69153;BME280;56261;51.580;4.578;2023-04-05T00:26:24;102617.00;;;2.69;100.00
69153;BME280;56261;51.580;4.578;2023-04-05T00:28:50;102617.78;;;2.71;100.00
69153;BME280;56261;51.580;4.578;2023-04-05T00:31:16;102608.31;;;2.67;100.00
69153;BME280;56261;51.580;4.578;2023-04-05T00:33:42;102613.59;;;2.67;100.00
69153;BME280;56261;51.580;4.578;2023-04-05T00:36:18;102609.56;;;2.60;100.00
69153;BME280;56261;51.580;4.578;2023-04-05T00:38:45;102609.00;;;2.53;100.00
69153;BME280;56261;51.580;4.578;2023-04-05T00:41:12;102602.31;;;2.46;100.00
69153;BME280;56261;51.580;4.578;2023-04-05T00:43:37;102602.69;;;2.38;100.00
69153;BME280;56261;51.580;4.578;2023-04-05T00:46:06;102601.09;;;2.34;100.00
69153;BME280;56261;51.580;4.578;2023-04-05T00:48:32;102579.84;;;2.20;100.00
69153;BME280;56261;51.580;4.578;2023-04-05T00:50:58;102602.97;;;2.32;100.00
69153;BME280;56261;51.580;4.578;2023-04-05T00:53:25;102598.22;;;2.21;100.00
69153;BME280;56261;51.580;4.578;2023-04-05T00:55:54;102600.88;;;2.39;100.00
69153;BME280;56261;51.580;4.578;2023-04-05T00:58:21;102601.03;;;2.36;100.00
69153;BME280;56261;51.580;4.578;2023-04-05T01:00:56;102602.91;;;2.34;100.00
69153;BME280;56261;51.580;4.578;2023-04-05T01:03:25;102597.06;;;2.27;100.00
69153;BME280;56261;51.580;4.578;2023-04-05T01:05:56;102597.13;;;2.25;100.00
69153;BME280;56261;51.580;4.578;2023-04-05T01:08:35;102592.38;;;2.15;100.00
69153;BME280;56261;51.580;4.578;2023-04-05T01:11:05;102594.31;;;2.11;100.00
69153;BME280;56261;51.580;4.578;2023-04-05T01:13:31;102597.22;;;2.05;100.00
69153;BME280;56261;51.580;4.578;2023-04-05T01:15:57;102593.16;;;1.98;100.00
69153;BME280;56261;51.580;4.578;2023-04-05T01:18:22;102589.22;;;1.87;100.00
69153;BME280;56261;51.580;4.578;2023-04-05T01:21:23;102577.06;;;1.85;100.00
69153;BME280;56261;51.580;4.578;2023-04-05T01:27:00;102577.44;;;1.77;100.00
69153;BME280;56261;51.580;4.578;2023-04-05T01:29:43;102582.47;;;1.82;100.00
69153;BME280;56261;51.580;4.578;2023-04-05T01:34:51;102576.38;;;1.81;100.00
69153;BME280;56261;51.580;4.578;2023-04-05T01:37:19;102567.19;;;1.71;100.00
69153;BME280;56261;51.580;4.578;2023-04-05T01:39:48;102558.44;;;1.71;100.00
69153;BME280;56261;51.580;4.578;2023-04-05T01:42:16;102575.44;;;1.63;100.00
69153;BME280;56261;51.580;4.578;2023-04-05T01:44:48;102572.22;;;1.57;100.00
69153;BME280;56261;51.580;4.578;2023-04-05T01:47:13;102566.22;;;1.53;100.00
69153;BME280;56261;51.580;4.578;2023-04-05T01:49:38;102568.16;;;1.50;100.00
69153;BME280;56261;51.580;4.578;2023-04-05T01:52:04;102558.59;;;1.47;100.00
69153;BME280;56261;51.580;4.578;2023-04-05T01:54:29;102559.69;;;1.43;100.00
69153;BME280;56261;51.580;4.578;2023-04-05T01:56:55;102565.22;;;1.37;100.00
69153;BME280;56261;51.580;4.578;2023-04-05T01:59:21;102549.44;;;1.37;100.00
69153;BME280;56261;51.580;4.578;2023-04-05T02:01:46;102560.84;;;1.36;100.00
69153;BME280;56261;51.580;4.578;2023-04-05T02:04:11;102558.19;;;1.37;100.00
69153;BME280;56261;51.580;4.578;2023-04-05T02:06:37;102546.13;;;1.32;100.00
69153;BME280;56261;51.580;4.578;2023-04-05T02:09:02;102554.13;;;1.30;100.00
69153;BME280;56261;51.580;4.578;2023-04-05T02:11:27;102546.22;;;1.30;100.00
69153;BME280;56261;51.580;4.578;2023-04-05T02:13:53;102550.81;;;1.25;100.00
69153;BME280;56261;51.580;4.578;2023-04-05T02:16:18;102537.75;;;1.23;100.00
69153;BME280;56261;51.580;4.578;2023-04-05T02:18:43;102540.50;;;1.20;100.00
69153;BME280;56261;51.580;4.578;2023-04-05T02:21:15;102534.97;;;1.27;100.00
69153;BME280;56261;51.580;4.578;2023-04-05T02:23:41;102527.09;;;1.27;100.00
69153;BME280;56261;51.580;4.578;2023-04-05T02:26:06;102536.13;;;1.21;100.00
69153;BME280;56261;51.580;4.578;2023-04-05T02:28:31;102527.50;;;1.17;100.00
69153;BME280;56261;51.580;4.578;2023-04-05T02:30:57;102525.03;;;1.14;100.00
69153;BME280;56261;51.580;4.578;2023-04-05T02:33:22;102522.25;;;1.17;100.00
69153;BME280;56261;51.580;4.578;2023-04-05T02:35:49;102526.50;;;1.20;100.00
69153;BME280;56261;51.580;4.578;2023-04-05T02:38:15;102518.63;;;1.20;100.00
69153;BME280;56261;51.580;4.578;2023-04-05T02:40:41;102523.97;;;1.18;100.00
69153;BME280;56261;51.580;4.578;2023-04-05T02:43:06;102525.94;;;1.13;100.00
69153;BME280;56261;51.580;4.578;2023-04-05T02:45:32;102519.25;;;1.06;100.00
69153;BME280;56261;51.580;4.578;2023-04-05T02:47:57;102524.69;;;1.01;100.00
69153;BME280;56261;51.580;4.578;2023-04-05T02:50:25;102515.38;;;0.94;100.00
69153;BME280;56261;51.580;4.578;2023-04-05T02:52:50;102521.53;;;0.93;100.00
69153;BME280;56261;51.580;4.578;2023-04-05T02:55:16;102517.47;;;0.86;100.00
69153;BME280;56261;51.580;4.578;2023-04-05T02:57:43;102513.00;;;0.88;100.00
69153;BME280;56261;51.580;4.578;2023-04-05T03:00:09;102507.81;;;0.87;100.00
69153;BME280;56261;51.580;4.578;2023-04-05T03:02:36;102508.59;;;0.89;100.00
69153;BME280;56261;51.580;4.578;2023-04-05T03:05:02;102503.94;;;0.95;100.00
69153;BME280;56261;51.580;4.578;2023-04-05T03:07:27;102505.06;;;0.90;100.00
69153;BME280;56261;51.580;4.578;2023-04-05T03:09:53;102496.72;;;0.80;100.00
69153;BME280;56261;51.580;4.578;2023-04-05T03:12:19;102499.41;;;0.78;100.00
69153;BME280;56261;51.580;4.578;2023-04-05T03:14:44;102496.13;;;0.73;100.00
69153;BME280;56261;51.580;4.578;2023-04-05T03:17:11;102504.97;;;0.71;100.00
69153;BME280;56261;51.580;4.578;2023-04-05T03:19:36;102502.34;;;0.71;100.00
69153;BME280;56261;51.580;4.578;2023-04-05T03:22:03;102499.19;;;0.62;100.00
69153;BME280;56261;51.580;4.578;2023-04-05T03:24:28;102499.94;;;0.66;100.00
69153;BME280;56261;51.580;4.578;2023-04-05T03:26:53;102493.88;;;0.64;100.00
69153;BME280;56261;51.580;4.578;2023-04-05T03:29:19;102501.75;;;0.64;100.00
69153;BME280;56261;51.580;4.578;2023-04-05T03:31:44;102502.69;;;0.63;100.00
69153;BME280;56261;51.580;4.578;2023-04-05T03:34:10;102487.91;;;0.60;100.00
69153;BME280;56261;51.580;4.578;2023-04-05T03:36:35;102499.97;;;0.65;100.00
69153;BME280;56261;51.580;4.578;2023-04-05T03:39:07;102498.53;;;0.57;100.00
69153;BME280;56261;51.580;4.578;2023-04-05T03:41:34;102498.53;;;0.57;100.00
69153;BME280;56261;51.580;4.578;2023-04-05T03:44:00;102504.16;;;0.48;100.00
69153;BME280;56261;51.580;4.578;2023-04-05T03:46:25;102496.63;;;0.40;100.00
69153;BME280;56261;51.580;4.578;2023-04-05T03:48:50;102502.47;;;0.47;100.00
69153;BME280;56261;51.580;4.578;2023-04-05T03:51:16;102490.19;;;0.48;100.00
69153;BME280;56261;51.580;4.578;2023-04-05T03:53:43;102489.22;;;0.50;100.00
69153;BME280;56261;51.580;4.578;2023-04-05T03:56:08;102483.31;;;0.45;100.00
69153;BME280;56261;51.580;4.578;2023-04-05T03:58:35;102491.88;;;0.49;100.00
69153;BME280;56261;51.580;4.578;2023-04-05T04:01:00;102491.22;;;0.44;100.00
69153;BME280;56261;51.580;4.578;2023-04-05T04:03:26;102481.78;;;0.39;100.00
69153;BME280;56261;51.580;4.578;2023-04-05T04:05:53;102486.31;;;0.36;100.00
69153;BME280;56261;51.580;4.578;2023-04-05T04:08:18;102495.94;;;0.35;100.00
69153;BME280;56261;51.580;4.578;2023-04-05T04:10:44;102493.44;;;0.32;100.00
69153;BME280;56261;51.580;4.578;2023-04-05T04:13:09;102487.34;;;0.32;100.00
69153;BME280;56261;51.580;4.578;2023-04-05T04:15:35;102494.25;;;0.34;100.00
69153;BME280;56261;51.580;4.578;2023-04-05T04:18:00;102489.09;;;0.31;100.00
69153;BME280;56261;51.580;4.578;2023-04-05T04:20:25;102488.25;;;0.31;100.00
69153;BME280;56261;51.580;4.578;2023-04-05T04:22:51;102486.66;;;0.27;100.00
69153;BME280;56261;51.580;4.578;2023-04-05T04:25:18;102478.97;;;0.22;100.00
69153;BME280;56261;51.580;4.578;2023-04-05T04:27:44;102482.94;;;0.32;100.00
69153;BME280;56261;51.580;4.578;2023-04-05T04:30:12;102479.28;;;0.36;100.00
69153;BME280;56261;51.580;4.578;2023-04-05T04:32:39;102477.91;;;0.28;100.00
69153;BME280;56261;51.580;4.578;2023-04-05T04:35:22;102482.16;;;0.30;100.00
69153;BME280;56261;51.580;4.578;2023-04-05T04:38:05;102478.94;;;0.24;100.00
69153;BME280;56261;51.580;4.578;2023-04-05T04:40:35;102474.06;;;0.14;100.00
69153;BME280;56261;51.580;4.578;2023-04-05T04:43:15;102474.06;;;0.14;100.00
69153;BME280;56261;51.580;4.578;2023-04-05T04:45:50;102467.09;;;0.13;100.00
69153;BME280;56261;51.580;4.578;2023-04-05T04:48:19;102476.72;;;0.13;100.00
69153;BME280;56261;51.580;4.578;2023-04-05T04:50:46;102462.34;;;0.01;100.00
69153;BME280;56261;51.580;4.578;2023-04-05T04:53:12;102465.53;;;0.09;100.00
69153;BME280;56261;51.580;4.578;2023-04-05T04:55:39;102476.97;;;0.07;100.00
69153;BME280;56261;51.580;4.578;2023-04-05T04:58:10;102473.31;;;0.11;100.00
69153;BME280;56261;51.580;4.578;2023-04-05T05:00:40;102468.19;;;0.08;100.00
69153;BME280;56261;51.580;4.578;2023-04-05T05:03:08;102468.19;;;0.08;100.00
69153;BME280;56261;51.580;4.578;2023-04-05T05:05:40;102468.38;;;0.03;100.00
69153;BME280;56261;51.580;4.578;2023-04-05T05:08:06;102469.09;;;0.07;100.00
69153;BME280;56261;51.580;4.578;2023-04-05T05:10:32;102465.63;;;0.06;100.00
69153;BME280;56261;51.580;4.578;2023-04-05T05:12:57;102471.63;;;0.10;100.00
69153;BME280;56261;51.580;4.578;2023-04-05T05:15:22;102472.09;;;0.19;100.00
69153;BME280;56261;51.580;4.578;2023-04-05T05:17:48;102468.47;;;0.22;100.00
69153;BME280;56261;51.580;4.578;2023-04-05T05:20:17;102475.69;;;0.17;100.00
69153;BME280;56261;51.580;4.578;2023-04-05T05:22:42;102472.28;;;0.15;100.00
69153;BME280;56261;51.580;4.578;2023-04-05T05:25:08;102466.94;;;0.18;100.00
69153;BME280;56261;51.580;4.578;2023-04-05T05:27:34;102479.78;;;0.24;100.00
69153;BME280;56261;51.580;4.578;2023-04-05T05:30:00;102478.78;;;0.27;100.00
69153;BME280;56261;51.580;4.578;2023-04-05T05:32:25;102478.06;;;0.23;100.00
69153;BME280;56261;51.580;4.578;2023-04-05T05:34:51;102485.53;;;0.34;100.00
69153;BME280;56261;51.580;4.578;2023-04-05T05:37:17;102478.25;;;0.40;100.00
69153;BME280;56261;51.580;4.578;2023-04-05T05:39:42;102483.22;;;0.47;100.00
69153;BME280;56261;51.580;4.578;2023-04-05T05:42:11;102481.53;;;0.46;100.00
69153;BME280;56261;51.580;4.578;2023-04-05T05:44:36;102481.38;;;0.49;100.00
69153;BME280;56261;51.580;4.578;2023-04-05T05:47:02;102486.72;;;0.47;100.00
69153;BME280;56261;51.580;4.578;2023-04-05T05:49:28;102492.63;;;0.52;100.00
69153;BME280;56261;51.580;4.578;2023-04-05T05:51:53;102484.69;;;0.54;100.00
69153;BME280;56261;51.580;4.578;2023-04-05T05:54:20;102484.50;;;0.58;100.00
69153;BME280;56261;51.580;4.578;2023-04-05T05:56:46;102488.38;;;0.70;100.00
69153;BME280;56261;51.580;4.578;2023-04-05T05:59:11;102496.72;;;0.80;100.00
69153;BME280;56261;51.580;4.578;2023-04-05T06:01:37;102491.94;;;0.90;100.00
69153;BME280;56261;51.580;4.578;2023-04-05T06:04:05;102494.16;;;0.99;100.00
69153;BME280;56261;51.580;4.578;2023-04-05T06:06:30;102488.34;;;1.11;100.00
69153;BME280;56261;51.580;4.578;2023-04-05T06:08:58;102495.78;;;1.22;100.00
69153;BME280;56261;51.580;4.578;2023-04-05T06:11:23;102490.41;;;1.44;100.00
69153;BME280;56261;51.580;4.578;2023-04-05T06:13:49;102489.78;;;1.77;100.00
69153;BME280;56261;51.580;4.578;2023-04-05T06:16:21;102485.78;;;2.06;100.00
69153;BME280;56261;51.580;4.578;2023-04-05T06:18:47;102488.69;;;2.36;100.00
69153;BME280;56261;51.580;4.578;2023-04-05T06:21:13;102488.59;;;3.07;100.00
69153;BME280;56261;51.580;4.578;2023-04-05T06:23:40;102481.31;;;3.62;100.00
69153;BME280;56261;51.580;4.578;2023-04-05T06:26:06;102483.09;;;4.25;100.00
69153;BME280;56261;51.580;4.578;2023-04-05T06:28:32;102477.31;;;4.78;100.00
69153;BME280;56261;51.580;4.578;2023-04-05T06:30:57;102468.75;;;5.32;100.00
69153;BME280;56261;51.580;4.578;2023-04-05T06:33:23;102474.69;;;5.22;100.00
69153;BME280;56261;51.580;4.578;2023-04-05T06:35:49;102478.75;;;5.41;100.00
69153;BME280;56261;51.580;4.578;2023-04-05T06:38:15;102469.34;;;5.65;100.00
69153;BME280;56261;51.580;4.578;2023-04-05T06:40:41;102477.56;;;6.03;100.00
69153;BME280;56261;51.580;4.578;2023-04-05T06:43:07;102470.78;;;6.39;100.00
69153;BME280;56261;51.580;4.578;2023-04-05T06:45:32;102472.84;;;7.12;100.00
69153;BME280;56261;51.580;4.578;2023-04-05T06:47:58;102476.81;;;7.19;100.00
69153;BME280;56261;51.580;4.578;2023-04-05T06:50:23;102479.66;;;7.16;100.00
69153;BME280;56261;51.580;4.578;2023-04-05T06:52:48;102479.81;;;6.49;100.00
69153;BME280;56261;51.580;4.578;2023-04-05T06:55:14;102474.41;;;6.51;100.00
69153;BME280;56261;51.580;4.578;2023-04-05T06:57:40;102475.81;;;7.07;100.00
69153;BME280;56261;51.580;4.578;2023-04-05T07:00:07;102477.47;;;7.60;100.00
69153;BME280;56261;51.580;4.578;2023-04-05T07:02:35;102472.84;;;8.11;100.00
69153;BME280;56261;51.580;4.578;2023-04-05T07:05:00;102470.25;;;8.23;100.00
69153;BME280;56261;51.580;4.578;2023-04-05T07:07:32;102470.56;;;7.94;100.00
69153;BME280;56261;51.580;4.578;2023-04-05T07:09:58;102470.34;;;8.21;100.00
69153;BME280;56261;51.580;4.578;2023-04-05T07:12:24;102457.91;;;8.46;100.00
69153;BME280;56261;51.580;4.578;2023-04-05T07:14:49;102466.06;;;8.07;100.00
69153;BME280;56261;51.580;4.578;2023-04-05T07:17:15;102467.38;;;8.37;100.00
69153;BME280;56261;51.580;4.578;2023-04-05T07:19:40;102465.00;;;8.69;100.00
69153;BME280;56261;51.580;4.578;2023-04-05T07:22:08;102462.97;;;8.84;100.00
69153;BME280;56261;51.580;4.578;2023-04-05T07:24:34;102466.09;;;8.78;100.00
69153;BME280;56261;51.580;4.578;2023-04-05T07:26:59;102459.38;;;9.19;100.00
69153;BME280;56261;51.580;4.578;2023-04-05T07:29:26;102453.66;;;9.57;100.00
69153;BME280;56261;51.580;4.578;2023-04-05T07:31:51;102455.97;;;9.40;100.00
69153;BME280;56261;51.580;4.578;2023-04-05T07:34:17;102454.00;;;9.87;100.00
69153;BME280;56261;51.580;4.578;2023-04-05T07:36:42;102450.03;;;9.59;100.00
69153;BME280;56261;51.580;4.578;2023-04-05T07:39:07;102434.31;;;9.55;100.00
69153;BME280;56261;51.580;4.578;2023-04-05T07:41:33;102458.53;;;9.19;100.00
69153;BME280;56261;51.580;4.578;2023-04-05T07:44:02;102440.31;;;9.80;100.00
69153;BME280;56261;51.580;4.578;2023-04-05T07:46:28;102448.09;;;10.04;100.00
69153;BME280;56261;51.580;4.578;2023-04-05T07:48:54;102447.25;;;10.04;100.00
69153;BME280;56261;51.580;4.578;2023-04-05T07:51:20;102444.28;;;10.92;100.00
69153;BME280;56261;51.580;4.578;2023-04-05T07:53:45;102449.56;;;10.83;100.00
69153;BME280;56261;51.580;4.578;2023-04-05T07:56:11;102449.63;;;10.92;99.98
69153;BME280;56261;51.580;4.578;2023-04-05T07:58:38;102449.97;;;10.36;100.00
69153;BME280;56261;51.580;4.578;2023-04-05T08:01:06;102451.59;;;10.90;98.97
69153;BME280;56261;51.580;4.578;2023-04-05T08:03:31;102454.25;;;10.90;100.00
69153;BME280;56261;51.580;4.578;2023-04-05T08:06:08;102442.88;;;11.19;96.85
69153;BME280;56261;51.580;4.578;2023-04-05T08:08:34;102444.59;;;10.99;98.81
69153;BME280;56261;51.580;4.578;2023-04-05T08:11:02;102444.44;;;10.70;96.47
69153;BME280;56261;51.580;4.578;2023-04-05T08:13:27;102440.16;;;12.00;88.56
69153;BME280;56261;51.580;4.578;2023-04-05T08:15:55;102439.28;;;11.90;91.16
69153;BME280;56261;51.580;4.578;2023-04-05T08:18:20;102437.47;;;11.50;90.08
69153;BME280;56261;51.580;4.578;2023-04-05T08:20:50;102431.00;;;12.02;82.10
69153;BME280;56261;51.580;4.578;2023-04-05T08:23:15;102438.72;;;11.96;77.27
69153;BME280;56261;51.580;4.578;2023-04-05T08:25:41;102435.16;;;11.66;78.50
69153;BME280;56261;51.580;4.578;2023-04-05T08:28:06;102438.94;;;10.71;83.79
69153;BME280;56261;51.580;4.578;2023-04-05T08:30:32;102444.41;;;10.91;76.79
69153;BME280;56261;51.580;4.578;2023-04-05T08:32:57;102444.75;;;10.55;85.65
69153;BME280;56261;51.580;4.578;2023-04-05T08:35:22;102434.78;;;12.49;72.32
69153;BME280;56261;51.580;4.578;2023-04-05T08:37:48;102433.63;;;13.08;67.44
69153;BME280;56261;51.580;4.578;2023-04-05T08:40:13;102434.56;;;13.26;61.94
69153;BME280;56261;51.580;4.578;2023-04-05T08:42:45;102430.78;;;13.19;61.48
69153;BME280;56261;51.580;4.578;2023-04-05T08:45:16;102433.34;;;12.54;57.97
69153;BME280;56261;51.580;4.578;2023-04-05T08:47:44;102422.81;;;11.94;67.87
69153;BME280;56261;51.580;4.578;2023-04-05T08:50:10;102426.06;;;12.46;59.48
69153;BME280;56261;51.580;4.578;2023-04-05T08:52:38;102426.06;;;12.37;58.83
69153;BME280;56261;51.580;4.578;2023-04-05T08:55:07;102420.44;;;13.34;57.33
69153;BME280;56261;51.580;4.578;2023-04-05T08:57:36;102422.75;;;13.75;49.60
69153;BME280;56261;51.580;4.578;2023-04-05T09:00:07;102416.53;;;13.74;51.29
69153;BME280;56261;51.580;4.578;2023-04-05T09:02:33;102419.94;;;13.94;49.86
69153;BME280;56261;51.580;4.578;2023-04-05T09:04:59;102420.09;;;13.47;49.14
69153;BME280;56261;51.580;4.578;2023-04-05T09:07:26;102421.28;;;13.35;53.56
69153;BME280;56261;51.580;4.578;2023-04-05T09:09:54;102414.63;;;14.20;49.62
69153;BME280;56261;51.580;4.578;2023-04-05T09:12:24;102420.91;;;13.29;56.16
69153;BME280;56261;51.580;4.578;2023-04-05T09:14:51;102419.16;;;12.05;54.51
69153;BME280;56261;51.580;4.578;2023-04-05T09:17:17;102429.88;;;11.95;59.78
69153;BME280;56261;51.580;4.578;2023-04-05T09:19:43;102424.31;;;11.68;55.82
69153;BME280;56261;51.580;4.578;2023-04-05T09:22:09;102415.59;;;13.10;59.76
69153;BME280;56261;51.580;4.578;2023-04-05T09:24:40;102414.00;;;13.90;52.04
69153;BME280;56261;51.580;4.578;2023-04-05T09:27:17;102420.06;;;13.29;54.11
69153;BME280;56261;51.580;4.578;2023-04-05T09:29:47;102409.34;;;13.75;52.49
69153;BME280;56261;51.580;4.578;2023-04-05T09:32:14;102412.69;;;13.59;52.38
69153;BME280;56261;51.580;4.578;2023-04-05T09:34:40;102410.44;;;14.18;50.18
69153;BME280;56261;51.580;4.578;2023-04-05T09:37:14;102409.28;;;14.02;49.41
69153;BME280;56261;51.580;4.578;2023-04-05T09:39:40;102415.22;;;14.32;48.98
69153;BME280;56261;51.580;4.578;2023-04-05T09:42:10;102404.97;;;13.56;52.80
69153;BME280;56261;51.580;4.578;2023-04-05T09:44:56;102395.34;;;13.25;54.95
69153;BME280;56261;51.580;4.578;2023-04-05T09:47:26;102405.69;;;13.48;53.01
69153;BME280;56261;51.580;4.578;2023-04-05T09:49:56;102401.41;;;13.27;53.41
69153;BME280;56261;51.580;4.578;2023-04-05T09:52:27;102407.19;;;13.33;56.23
69153;BME280;56261;51.580;4.578;2023-04-05T09:54:54;102395.91;;;14.10;52.88
69153;BME280;56261;51.580;4.578;2023-04-05T09:57:22;102386.19;;;14.53;49.79
69153;BME280;56261;51.580;4.578;2023-04-05T09:59:47;102393.66;;;13.80;51.59
69153;BME280;56261;51.580;4.578;2023-04-05T10:02:14;102387.75;;;13.94;50.90
69153;BME280;56261;51.580;4.578;2023-04-05T10:04:44;102383.69;;;12.89;52.94
69153;BME280;56261;51.580;4.578;2023-04-05T10:07:12;102390.78;;;12.71;52.57
69153;BME280;56261;51.580;4.578;2023-04-05T10:09:39;102375.94;;;13.51;55.50
69153;BME280;56261;51.580;4.578;2023-04-05T10:12:06;102391.06;;;12.67;53.82
69153;BME280;56261;51.580;4.578;2023-04-05T10:14:32;102385.88;;;12.56;56.43
69153;BME280;56261;51.580;4.578;2023-04-05T10:17:55;102385.97;;;12.17;64.66
69153;BME280;56261;51.580;4.578;2023-04-05T10:20:15;102392.16;;;11.98;59.12
69153;BME280;56261;51.580;4.578;2023-04-05T10:22:53;102389.31;;;12.10;59.03
69153;BME280;56261;51.580;4.578;2023-04-05T10:27:51;102391.13;;;11.20;62.53
69153;BME280;56261;51.580;4.578;2023-04-05T10:30:17;102378.06;;;11.77;69.52
69153;BME280;56261;51.580;4.578;2023-04-05T10:32:55;102383.53;;;11.75;65.07
69153;BME280;56261;51.580;4.578;2023-04-05T10:38:19;102379.41;;;11.52;64.96
69153;BME280;56261;51.580;4.578;2023-04-05T10:40:46;102387.16;;;11.05;67.59
69153;BME280;56261;51.580;4.578;2023-04-05T10:43:16;102376.53;;;11.24;63.60
69153;BME280;56261;51.580;4.578;2023-04-05T10:45:43;102364.25;;;11.12;69.73
69153;BME280;56261;51.580;4.578;2023-04-05T10:48:43;102377.34;;;11.15;68.22
69153;BME280;56261;51.580;4.578;2023-04-05T10:51:13;102372.56;;;11.18;69.59
69153;BME280;56261;51.580;4.578;2023-04-05T10:53:40;102374.56;;;11.26;68.38
69153;BME280;56261;51.580;4.578;2023-04-05T10:56:05;102367.28;;;11.38;68.14
69153;BME280;56261;51.580;4.578;2023-04-05T10:58:34;102366.13;;;11.21;70.20
69153;BME280;56261;51.580;4.578;2023-04-05T11:01:00;102366.50;;;11.07;69.61
69153;BME280;56261;51.580;4.578;2023-04-05T11:03:48;102354.94;;;11.56;69.14
69153;BME280;56261;51.580;4.578;2023-04-05T11:06:30;102357.06;;;11.62;65.23
69153;BME280;56261;51.580;4.578;2023-04-05T11:09:08;102350.03;;;11.61;64.99
69153;BME280;56261;51.580;4.578;2023-04-05T11:11:38;102353.81;;;11.49;67.28
69153;BME280;56261;51.580;4.578;2023-04-05T11:14:17;102343.13;;;11.49;69.34
69153;BME280;56261;51.580;4.578;2023-04-05T11:16:45;102344.97;;;11.68;63.43
69153;BME280;56261;51.580;4.578;2023-04-05T11:19:11;102349.28;;;11.40;67.78
69153;BME280;56261;51.580;4.578;2023-04-05T11:21:37;102343.00;;;11.41;64.82
69153;BME280;56261;51.580;4.578;2023-04-05T11:24:03;102338.84;;;11.17;64.56
69153;BME280;56261;51.580;4.578;2023-04-05T11:29:06;102330.75;;;12.16;66.18
69153;BME280;56261;51.580;4.578;2023-04-05T11:31:32;102331.00;;;12.42;63.47
69153;BME280;56261;51.580;4.578;2023-04-05T11:34:05;102323.97;;;12.41;66.16
69153;BME280;56261;51.580;4.578;2023-04-05T11:36:43;102334.31;;;12.17;62.87
69153;BME280;56261;51.580;4.578;2023-04-05T11:39:28;102330.94;;;12.15;61.22
69153;BME280;56261;51.580;4.578;2023-04-05T11:41:54;102323.88;;;12.23;67.21
69153;BME280;56261;51.580;4.578;2023-04-05T11:44:21;102316.25;;;12.29;61.27
69153;BME280;56261;51.580;4.578;2023-04-05T11:46:47;102307.84;;;12.88;63.69
69153;BME280;56261;51.580;4.578;2023-04-05T11:49:13;102318.00;;;12.85;62.81
69153;BME280;56261;51.580;4.578;2023-04-05T11:51:40;102301.22;;;12.93;60.98
69153;BME280;56261;51.580;4.578;2023-04-05T11:54:13;102311.94;;;12.55;58.95
69153;BME280;56261;51.580;4.578;2023-04-05T11:56:38;102304.75;;;12.83;64.36
69153;BME280;56261;51.580;4.578;2023-04-05T11:59:03;102293.59;;;13.16;57.45
69153;BME280;56261;51.580;4.578;2023-04-05T12:01:29;102294.47;;;12.88;58.99
69153;BME280;56261;51.580;4.578;2023-04-05T12:03:55;102296.38;;;12.31;62.50
69153;BME280;56261;51.580;4.578;2023-04-05T12:06:22;102289.41;;;12.58;62.41
69153;BME280;56261;51.580;4.578;2023-04-05T12:08:48;102293.47;;;12.62;60.04
69153;BME280;56261;51.580;4.578;2023-04-05T12:11:29;102279.94;;;12.26;60.96
69153;BME280;56261;51.580;4.578;2023-04-05T12:13:59;102273.69;;;12.73;64.75
69153;BME280;56261;51.580;4.578;2023-04-05T12:16:25;102278.88;;;12.74;61.82
69153;BME280;56261;51.580;4.578;2023-04-05T12:18:55;102281.09;;;12.51;61.37
69153;BME280;56261;51.580;4.578;2023-04-05T12:21:22;102287.66;;;12.29;61.84
69153;BME280;56261;51.580;4.578;2023-04-05T12:23:48;102280.03;;;12.34;58.58
69153;BME280;56261;51.580;4.578;2023-04-05T12:26:14;102274.38;;;12.75;65.30
69153;BME280;56261;51.580;4.578;2023-04-05T12:28:58;102275.47;;;12.82;60.41
69153;BME280;56261;51.580;4.578;2023-04-05T12:31:40;102285.06;;;12.47;60.09
69153;BME280;56261;51.580;4.578;2023-04-05T12:34:07;102277.88;;;12.48;59.90
69153;BME280;56261;51.580;4.578;2023-04-05T12:36:32;102279.94;;;12.26;62.40
69153;BME280;56261;51.580;4.578;2023-04-05T12:38:58;102276.91;;;12.01;62.23
69153;BME280;56261;51.580;4.578;2023-04-05T12:41:28;102274.91;;;11.94;66.32
69153;BME280;56261;51.580;4.578;2023-04-05T12:43:56;102268.41;;;12.16;65.51
69153;BME280;56261;51.580;4.578;2023-04-05T12:46:45;102277.28;;;11.87;62.75
69153;BME280;56261;51.580;4.578;2023-04-05T12:49:14;102264.72;;;12.27;65.46
69153;BME280;56261;51.580;4.578;2023-04-05T12:51:47;102267.78;;;12.32;64.92
69153;BME280;56261;51.580;4.578;2023-04-05T12:54:13;102255.03;;;12.16;67.29
69153;BME280;56261;51.580;4.578;2023-04-05T12:56:39;102259.50;;;12.35;63.35
69153;BME280;56261;51.580;4.578;2023-04-05T12:59:05;102249.81;;;12.14;60.89
69153;BME280;56261;51.580;4.578;2023-04-05T13:01:32;102246.69;;;12.19;64.65
69153;BME280;56261;51.580;4.578;2023-04-05T13:04:00;102235.41;;;12.35;64.09
69153;BME280;56261;51.580;4.578;2023-04-05T13:06:26;102232.75;;;12.62;64.19
69153;BME280;56261;51.580;4.578;2023-04-05T13:08:52;102231.25;;;12.78;64.88